Latest Weather Observations for Mount Bundey South (Defence)

IDD60801

Issued at 11:51 pm CST Sunday 17 February 2019 (issued every 10 minutes, with the page automatically refreshed every 10 minutes)

About weather observations | Map of weather stations | Latest weather observations for NT | Other Formats
Station Details ID: 014984 Name: MOUNT BUNDEY SOUTH (DEFENCE) Lat: -13.09 Lon: 131.85 Height: 55.0 m
Data from the previous 72 hours. | See also: Recent months at Mount Bundey South (Defence)
Date/Time
CST
Temp
°C
App
Temp
°C
Dew
Point
°C
Rel
Hum
%
Delta-T
°C
Wind Press
QNH
hPa
Press
MSL
hPa
Rain since
9am
mm
Dir  Spd
km/h
Gust
km/h
Spd
kts
Gust
kts
17/11:30pm 26.3 31.4 24.0 87 1.6 N 4 4 2 2 1013.3 1012.9 0.0
17/11:00pm 26.4 31.5 24.1 87 1.6 NNW 4 6 2 3 1013.2 1012.8 0.0
17/10:30pm 26.4 32.2 23.9 86 1.7 CALM 0 0 0 0 1012.9 1012.5 0.0
17/10:00pm 26.9 31.5 23.2 80 2.5 WSW 4 6 2 3 1012.4 1012.0 0.0
17/09:30pm 27.1 31.1 23.1 79 2.7 WSW 7 11 4 6 1012.3 1011.9 0.0
17/09:00pm 27.1 32.1 23.8 82 2.3 SW 4 7 2 4 1012.3 1011.9 0.0
17/08:30pm 27.3 31.4 23.3 79 2.7 W 7 11 4 6 1011.7 1011.3 0.0
17/08:00pm 27.8 31.4 23.0 75 3.3 W 9 20 5 11 1011.2 1010.8 0.0
17/07:30pm 29.1 31.6 23.1 70 4.1 W 15 26 8 14 1011.1 1010.7 0.0
17/07:00pm 30.8 36.7 25.4 73 3.8 WNW 4 7 2 4 1010.3 1009.9 0.0
17/06:30pm 32.1 37.7 24.2 63 5.5 NW 2 6 1 3 1009.9 1009.5 0.0
17/06:00pm 33.0 38.0 23.9 59 6.4 N 4 7 2 4 1009.3 1008.9 0.0
17/05:30pm 34.0 38.4 22.1 50 8.2 N 2 6 1 3 1008.9 1008.5 0.0
17/05:00pm 34.3 39.2 23.6 53 7.5 N 4 7 2 4 1008.6 1008.2 0.0
17/04:30pm 34.0 38.7 22.7 51 7.8 N 2 4 1 2 1009.0 1008.6 0.0
17/04:00pm 34.6 39.5 23.6 52 7.7 NW 4 6 2 3 1009.0 1008.6 0.0
17/03:30pm 33.8 37.7 22.6 52 7.7 NE 6 9 3 5 1009.3 1008.9 0.0
17/03:00pm 33.8 38.1 22.6 52 7.7 SSW 4 9 2 5 1010.2 1009.8 0.0
17/02:30pm 33.3 37.4 23.3 55 6.9 WSW 7 11 4 6 1010.7 1010.3 0.0
17/02:00pm 33.1 37.6 23.7 57 6.6 NW 6 9 3 5 1011.2 1010.8 0.0
17/01:30pm 32.2 36.4 23.2 59 6.2 WSW 6 9 3 5 1011.9 1011.5 0.0
17/01:00pm 32.2 36.4 23.2 59 6.2 W 6 13 3 7 1012.3 1011.9 0.0
17/12:30pm 31.9 36.7 24.2 63 5.4 NNE 6 11 3 6 1012.7 1012.3 0.0
17/12:00pm 31.5 36.2 23.9 64 5.3 W 6 9 3 5 1013.3 1012.9 0.0
17/11:30am 31.1 36.3 23.5 64 5.3 S 2 4 1 2 1013.6 1013.2 0.0
17/11:00am 29.8 34.2 22.8 66 4.8 NNW 4 9 2 5 1013.9 1013.5 0.0
17/10:30am 28.7 33.8 24.0 76 3.3 NNE 4 6 2 3 1014.0 1013.6 0.0
17/10:00am 27.1 32.2 23.3 80 2.6 NNW 2 4 1 2 1014.2 1013.8 0.0
17/09:30am 26.9 32.6 23.8 83 2.1 CALM 0 0 0 0 1014.2 1013.8 0.0
17/09:00am 25.7 31.4 23.7 89 1.4 CALM 0 0 0 0 1014.2 1013.8 40.2
17/08:30am 25.0 30.9 24.1 95 0.6 CALM 0 0 0 0 1014.1 1013.7 40.2
17/08:00am 24.4 30.2 23.9 97 0.3 CALM 0 0 0 0 1013.7 1013.3 40.2
17/07:30am 24.0 29.7 23.7 98 0.2 CALM 0 0 0 0 1013.0 1012.6 40.2
17/07:00am 23.7 29.2 23.4 98 0.2 CALM 0 0 0 0 1012.8 1012.4 40.2
17/06:30am 23.8 29.4 23.5 98 0.2 CALM 0 0 0 0 1012.4 1012.0 40.2
17/06:00am 23.7 29.2 23.4 98 0.2 CALM 0 0 0 0 1012.1 1011.7 40.2
17/05:30am 23.5 28.9 23.2 98 0.2 CALM 0 0 0 0 1012.1 1011.7 40.2
17/05:00am 23.5 28.9 23.2 98 0.2 CALM 0 0 0 0 1011.6 1011.2 40.2
17/04:30am 23.4 28.2 22.9 97 0.3 ENE 2 4 1 2 1011.3 1010.9 40.2
17/04:00am 23.5 28.8 23.0 97 0.3 CALM 0 4 0 2 1011.2 1010.8 40.2
17/03:30am 23.7 29.1 23.2 97 0.3 CALM 0 0 0 0 1011.1 1010.7 40.2
17/03:00am 23.8 28.9 23.3 97 0.3 NNW 2 6 1 3 1011.0 1010.6 40.2
17/02:30am 23.9 28.1 23.2 96 0.5 SW 6 7 3 4 1011.7 1011.3 40.2
17/02:00am 23.9 28.0 23.0 95 0.6 WNW 6 9 3 5 1011.6 1011.2 40.2
17/01:30am 23.8 28.3 23.0 95 0.5 N 4 9 2 5 1011.9 1011.5 40.2
17/01:00am 23.9 27.8 22.5 92 0.9 SSE 6 9 3 5 1012.0 1011.6 40.2
17/12:30am 24.0 27.3 22.6 92 0.9 SE 9 15 5 8 1013.1 1012.7 40.2
17/12:00am 24.4 28.6 23.4 94 0.7 ESE 7 15 4 8 1013.7 1013.3 40.2
 
Date/Time
CST
Temp
°C
App
Temp
°C
Dew
Point
°C
Rel
Hum
%
Delta-T
°C
Wind Press
QNH
hPa
Press
MSL
hPa
Rain since
9am
mm
Dir  Spd
km/h
Gust
km/h
Spd
kts
Gust
kts
16/11:30pm 24.7 30.0 24.4 98 0.2 NE 4 6 2 3 1013.6 1013.2 40.2
16/11:00pm 24.7 30.8 24.4 98 0.2 CALM 0 0 0 0 1013.4 1013.0 40.2
16/10:30pm 24.6 30.5 24.1 97 0.3 CALM 0 4 0 2 1013.6 1013.2 40.0
16/10:00pm 24.6 29.7 24.1 97 0.3 WNW 4 7 2 4 1013.7 1013.3 39.8
16/09:30pm 24.4 29.1 23.9 97 0.3 NNW 6 7 3 4 1014.3 1013.9 39.2
16/09:00pm 24.4 29.1 23.9 97 0.3 NW 6 9 3 5 1014.5 1014.1 38.4
16/08:30pm 24.5 30.0 24.0 97 0.3 WNW 2 6 1 3 1014.5 1014.1 37.8
16/08:00pm 24.1 28.5 23.4 96 0.5 WNW 6 11 3 6 1013.4 1013.0 37.4
16/07:30pm 24.8 29.1 23.6 93 0.8 E 7 13 4 7 1014.1 1013.7 26.6
16/07:18pm 25.3 28.3 23.4 89 1.3 NNE 13 30 7 16 1013.6 1013.2 20.6
16/07:00pm 24.8 28.7 23.6 93 0.8 NNW 9 17 5 9 1011.6 1011.2 19.4
16/06:30pm 24.7 25.8 22.0 85 1.8 NW 19 32 10 17 1010.8 1010.4 15.0
16/06:24pm 24.4 26.1 21.7 85 1.8 N 15 32 8 17 1011.0 1010.6 12.0
16/06:00pm 29.4 32.1 22.1 65 4.9 WNW 11 22 6 12 1009.7 1009.3 0.0
16/05:30pm 33.4 38.9 24.6 60 6.2 N 4 7 2 4 1009.0 1008.6 0.0
16/05:00pm 35.4 40.1 23.4 50 8.4 NE 4 11 2 6 1008.2 1007.8 0.0
16/04:30pm 35.5 40.3 23.5 50 8.4 NE 4 7 2 4 1008.5 1008.1 0.0
16/04:00pm 35.5 40.1 23.8 50 8.2 SE 6 9 3 5 1009.0 1008.6 0.0
16/03:30pm 35.0 39.9 23.7 52 7.9 E 4 9 2 5 1009.5 1009.1 0.0
16/03:00pm 35.2 40.6 23.8 51 8.0 E 2 7 1 4 1010.0 1009.6 0.0
16/02:30pm 34.8 40.7 24.7 55 7.2 E 2 6 1 3 1010.7 1010.3 0.0
16/02:00pm 35.4 40.9 24.7 54 7.6 ENE 4 6 2 3 1011.4 1011.0 0.0
16/01:30pm 34.5 39.8 25.0 57 6.7 E 6 11 3 6 1011.8 1011.4 0.0
16/01:00pm 34.8 40.9 25.0 56 7.0 NE 2 6 1 3 1012.3 1011.9 0.0
16/12:30pm 33.4 38.3 23.7 56 6.8 N 4 9 2 5 1012.8 1012.4 0.0
16/12:00pm 32.7 37.4 23.3 57 6.5 WSW 4 7 2 4 1013.2 1012.8 0.0
16/11:30am 32.3 36.7 23.5 59 6.1 SW 6 9 3 5 1014.0 1013.6 0.0
16/11:00am 31.9 36.6 23.4 60 5.9 SW 4 11 2 6 1014.4 1014.0 0.0
16/10:30am 31.2 35.8 24.1 66 5.0 S 7 11 4 6 1014.9 1014.5 0.0
16/10:00am 30.5 35.6 24.6 70 4.1 SSW 6 11 3 6 1015.1 1014.7 0.0
16/09:30am 29.6 34.6 24.5 74 3.6 SSE 6 13 3 7 1015.2 1014.8 0.0
16/09:00am 29.0 34.3 24.3 76 3.3 SSE 4 7 2 4 1014.8 1014.4 0.2
16/08:30am 28.0 33.4 23.8 78 2.9 SE 2 6 1 3 1014.6 1014.2 0.2
16/08:00am 26.8 31.7 23.7 83 2.1 SE 4 6 2 3 1014.3 1013.9 0.2
16/07:30am 26.4 32.1 24.4 89 1.4 ENE 2 6 1 3 1013.9 1013.5 0.2
16/07:00am 25.0 30.3 24.3 96 0.5 NE 4 7 2 4 1013.5 1013.1 0.2
16/06:30am 24.9 30.1 24.2 96 0.5 NE 4 6 2 3 1013.4 1013.0 0.2
16/06:00am 24.9 30.9 24.2 96 0.5 CALM 0 0 0 0 1013.1 1012.7 0.2
16/05:30am 24.9 30.9 24.2 96 0.5 CALM 0 0 0 0 1012.7 1012.3 0.2
16/05:00am 24.9 30.5 24.2 96 0.5 SSE 2 4 1 2 1012.8 1012.4 0.2
16/04:30am 25.0 30.9 24.1 95 0.6 CALM 0 0 0 0 1012.9 1012.5 0.2
16/04:00am 25.1 31.1 24.2 95 0.6 CALM 0 0 0 0 1012.8 1012.4 0.2
16/03:30am 25.1 30.9 23.9 93 0.8 CALM 0 0 0 0 1012.8 1012.4 0.2
16/03:00am 25.4 31.4 24.2 93 0.8 CALM 0 2 0 1 1013.0 1012.6 0.2
16/02:30am 25.5 31.2 23.7 90 1.2 CALM 0 0 0 0 1013.6 1013.2 0.2
16/02:00am 25.4 30.3 23.6 90 1.2 NE 4 6 2 3 1013.7 1013.3 0.2
16/01:30am 25.4 30.6 23.6 90 1.2 N 2 6 1 3 1013.6 1013.2 0.2
16/01:00am 25.6 31.0 23.8 90 1.2 NW 2 4 1 2 1013.6 1013.2 0.2
16/12:30am 26.3 30.3 22.8 81 2.4 NE 6 11 3 6 1014.1 1013.7 0.2
16/12:00am 25.9 27.6 23.0 84 2.0 E 19 35 10 19 1015.8 1015.4 0.2
 
Date/Time
CST
Temp
°C
App
Temp
°C
Dew
Point
°C
Rel
Hum
%
Delta-T
°C
Wind Press
QNH
hPa
Press
MSL
hPa
Rain since
9am
mm
Dir  Spd
km/h
Gust
km/h
Spd
kts
Gust
kts
15/11:30pm 25.9 31.4 24.1 90 1.2 SSW 2 6 1 3 1014.7 1014.3 0.2
15/11:00pm 26.1 31.2 23.4 85 1.8 S 2 4 1 2 1014.7 1014.3 0.2
15/10:30pm 26.2 30.8 23.1 83 2.1 ENE 4 9 2 5 1014.5 1014.1 0.2
15/10:00pm 26.4 31.4 23.9 86 1.7 NNE 4 6 2 3 1014.0 1013.6 0.2
15/09:30pm 26.4 32.3 24.1 87 1.6 CALM 0 0 0 0 1013.8 1013.4 0.2
15/09:00pm 26.7 32.1 23.2 81 2.4 CALM 0 2 0 1 1013.1 1012.7 0.2
15/08:30pm 27.0 32.1 22.6 77 3.0 CALM 0 2 0 1 1012.9 1012.5 0.2
15/08:00pm 27.1 31.4 22.7 77 3.0 NNW 4 7 2 4 1012.7 1012.3 0.2
15/07:30pm 27.1 30.7 22.3 75 3.2 N 7 13 4 7 1012.8 1012.4 0.2
15/07:00pm 27.8 30.6 22.3 72 3.7 NNE 11 24 6 13 1012.4 1012.0 0.2
15/06:30pm 31.5 38.8 26.3 74 3.7 CALM 0 0 0 0 1011.3 1010.9 0.2
15/06:00pm 31.9 39.2 26.9 75 3.6 NNE 2 2 1 1 1010.9 1010.5 0.2
15/05:30pm 33.0 39.1 25.0 63 5.7 NE 2 4 1 2 1010.8 1010.4 0.2
15/05:00pm 33.9 39.1 24.2 57 6.8 NNE 4 7 2 4 1010.2 1009.8 0.2
15/04:30pm 35.0 39.9 24.3 54 7.6 NE 6 13 3 7 1010.2 1009.8 0.2
15/04:00pm 34.8 39.9 24.7 55 7.2 NNW 6 11 3 6 1010.6 1010.2 0.2
15/03:30pm 34.4 39.3 23.7 53 7.5 NNE 4 9 2 5 1011.2 1010.8 0.2
15/03:00pm 34.3 39.0 23.3 52 7.7 WNW 4 9 2 5 1011.3 1010.9 0.2
15/02:30pm 33.8 37.3 22.2 50 8.0 NNE 7 11 4 6 1011.8 1011.4 0.2
15/02:00pm 33.3 37.4 21.5 50 8.0 SW 2 4 1 2 1012.1 1011.7 0.2
15/01:30pm 33.7 37.9 22.5 52 7.7 NW 4 9 2 5 1012.5 1012.1 0.2
15/01:00pm 32.9 35.9 20.8 49 8.1 W 6 9 3 5 1013.0 1012.6 0.2
15/12:30pm 32.4 35.3 20.6 49 7.9 W 6 11 3 6 1013.6 1013.2 0.2
15/12:00pm 31.5 34.8 21.4 55 6.8 W 6 9 3 5 1014.2 1013.8 0.2
15/11:30am 31.0 34.3 21.5 57 6.4 NW 6 9 3 5 1014.5 1014.1 0.2
15/11:00am 30.5 33.9 21.0 57 6.4 WSW 4 7 2 4 1014.7 1014.3 0.2
15/10:30am 29.4 33.3 21.1 61 5.5 NW 2 7 1 4 1014.8 1014.4 0.2
15/10:00am 28.3 32.7 22.1 69 4.2 WNW 2 7 1 4 1014.8 1014.4 0.2
15/09:30am 27.2 31.7 23.7 81 2.4 WNW 6 9 3 5 1014.8 1014.4 0.0
15/09:00am 26.3 31.3 23.8 86 1.7 W 4 6 2 3 1014.7 1014.3 -
15/08:30am 25.0 29.6 23.2 90 1.2 NW 4 6 2 3 1014.1 1013.7 -
15/08:00am 24.5 29.2 23.3 93 0.8 NNW 4 4 2 2 1013.6 1013.2 -
15/07:30am 24.0 - 23.3 96 0.5 - - - - - 1013.1 1012.7 -
15/07:00am 23.8 29.1 23.0 95 0.5 CALM 0 0 0 0 1012.7 1012.3 -
15/06:30am 23.9 29.1 22.9 94 0.7 CALM 0 4 0 2 1012.2 1011.8 -
15/06:00am 23.7 27.7 22.7 94 0.7 E 6 7 3 4 1011.7 1011.3 -
15/05:30am 23.6 28.2 22.4 93 0.8 SE 2 4 1 2 1011.4 1011.0 -
15/05:00am 23.6 27.9 21.9 90 1.1 ESE 2 4 1 2 1011.3 1010.9 -
15/04:30am 23.6 27.4 21.7 89 1.3 SE 4 4 2 2 1011.3 1010.9 -
15/04:00am 23.7 26.4 21.4 87 1.5 ESE 9 15 5 8 1011.2 1010.8 -
15/03:30am 23.8 28.2 22.1 90 1.1 SSE 2 6 1 3 1010.7 1010.3 -
15/03:00am 23.6 28.5 22.4 93 0.8 CALM 0 0 0 0 1010.7 1010.3 -
15/02:30am 23.9 - 21.8 88 1.4 - - - - - 1011.0 1010.6 -
15/02:00am 24.0 26.6 20.1 79 2.5 NNE 6 9 3 5 1011.8 1011.4 9.4
15/01:30am 23.9 26.7 20.4 81 2.3 N 6 11 3 6 1012.6 1012.2 9.4
15/01:00am 23.5 28.4 22.3 93 0.8 CALM 0 0 0 0 1013.5 1013.1 9.0
15/12:30am 23.7 27.4 21.4 87 1.5 SSE 4 9 2 5 1013.9 1013.5 8.8
15/12:00am 23.1 24.9 21.2 89 1.2 NE 13 24 7 13 1013.9 1013.5 8.8

Other Formats:

Comma delimited format used in spreadsheet applications
http://www.bom.gov.au/fwo/IDD60801/IDD60801.94112.axf

JavaScript Object Notation format (JSON) in row-major order
http://www.bom.gov.au/fwo/IDD60801/IDD60801.94112.json